Riviera Beach, Texas
Current Conditions -  °F | °C
As of 7:56 AM on Wednesday 26 Nov 2014 (Local Time) from KNQI Reporting Station
Clear Clear  
Wind Chill: 43°   Ceiling: Unl
Heat Index: 45°   Visibility: 10mi
Dew Point: 41°   Wind: 5mph
Humidity: 86%   Direction: 200°SSW
Pressure: 30.29"   Gusts: NA
Location:  27.3193°N, 97.8839°W
Report Text: KNQI 261356Z 20004KT 10SM CLR 07/05 A3029 RMK AO2 SLP254 T00720050 $
Loading
Personal Weather Stations






























Interactive Weather Map New forecast layout! Learn more

10-Day Weather Forecast

Advertisements
Track Severe Weather on mobile